Time;durP1;ratioP1;P1;durP2;ratioP2;P2;SDS_P1;SDS_P2;PMS_P1;PMS_P2;Temp;Humidity;BMP_temperature;BMP_pressure;BME280_temperature;BME280_humidity;BME280_pressure;Samples;Min_cycle;Max_cycle;Signal;HPM_P1;HPM_P2
2024/02/21 00:01:06;;;;;;;;;;;17.80;67.00;;;;;;4990847;28;1497;-69
2024/02/21 00:03:32;;;;;;;;;;;17.80;67.00;;;;;;5002717;28;1162;-69
2024/02/21 00:05:57;;;;;;;;;;;17.80;67.10;;;;;;5001253;28;1351;-69
2024/02/21 00:08:24;;;;;;;;;;;17.80;67.10;;;;;;5001765;28;1971;-68
2024/02/21 00:10:49;;;;;;;;;;;17.80;67.10;;;;;;4988963;28;1457;-68
2024/02/21 00:13:15;;;;;;;;;;;17.80;67.10;;;;;;5001184;28;1261;-68
2024/02/21 00:15:40;;;;;;;;;;;17.80;67.10;;;;;;4988669;28;1266;-72
2024/02/21 00:18:06;;;;;;;;;;;17.80;67.10;;;;;;5004037;28;1468;-69
2024/02/21 00:20:31;;;;;;;;;;;17.80;67.10;;;;;;5003673;28;1379;-69
2024/02/21 00:22:57;;;;;;;;;;;17.80;67.10;;;;;;5001176;28;1258;-69
2024/02/21 00:25:22;;;;;;;;;;;17.80;67.10;;;;;;5007695;28;896;-67
2024/02/21 00:27:48;;;;;;;;;;;17.80;67.20;;;;;;5002140;28;4155;-68
2024/02/21 00:30:13;;;;;;;;;;;17.80;67.20;;;;;;4984838;28;1269;-68
2024/02/21 00:32:39;;;;;;;;;;;17.80;67.20;;;;;;4986963;28;1525;-71
2024/02/21 00:35:04;;;;;;;;;;;17.80;67.20;;;;;;5002551;28;1363;-68
2024/02/21 00:37:30;;;;;;;;;;;17.80;67.20;;;;;;4976792;28;1382;-67
2024/02/21 00:39:56;;;;;;;;;;;17.80;67.20;;;;;;4987268;28;1436;-68
2024/02/21 00:42:21;;;;;;;;;;;17.80;67.20;;;;;;4985103;28;1303;-69
2024/02/21 00:44:47;;;;;;;;;;;17.80;67.20;;;;;;4991968;28;1460;-68
2024/02/21 00:47:12;;;;;;;;;;;17.80;67.20;;;;;;5004207;28;1914;-68
2024/02/21 00:49:38;;;;;;;;;;;17.80;67.20;;;;;;4984246;28;1508;-68
2024/02/21 00:52:03;;;;;;;;;;;17.80;67.20;;;;;;4984531;28;1657;-69
2024/02/21 00:54:29;;;;;;;;;;;17.80;67.20;;;;;;5003295;28;1251;-69
2024/02/21 00:56:54;;;;;;;;;;;17.80;67.30;;;;;;5002032;28;1460;-69
2024/02/21 00:59:20;;;;;;;;;;;17.70;67.20;;;;;;5002127;28;1508;-70
2024/02/21 01:01:45;;;;;;;;;;;17.70;67.20;;;;;;4989660;28;1386;-70
2024/02/21 01:04:10;;;;;;;;;;;17.80;67.30;;;;;;4987760;28;1363;-70
2024/02/21 01:06:36;;;;;;;;;;;17.80;67.20;;;;;;5002258;28;1114;-69
2024/02/21 01:09:01;;;;;;;;;;;17.70;67.20;;;;;;5003421;28;1902;-69
2024/02/21 01:11:27;;;;;;;;;;;17.70;67.20;;;;;;5000996;28;1332;-70
2024/02/21 01:13:53;;;;;;;;;;;17.80;67.20;;;;;;5000264;28;1464;-70
2024/02/21 01:16:18;;;;;;;;;;;17.70;67.20;;;;;;4988097;28;1271;-69
2024/02/21 01:18:44;;;;;;;;;;;17.70;67.20;;;;;;4986512;28;1700;-69
2024/02/21 01:21:09;;;;;;;;;;;17.70;67.20;;;;;;5001274;28;1481;-69
2024/02/21 01:23:35;;;;;;;;;;;17.70;67.20;;;;;;5000800;28;1317;-69
2024/02/21 01:26:01;;;;;;;;;;;17.70;67.20;;;;;;5003071;28;1635;-69
2024/02/21 01:28:27;;;;;;;;;;;17.70;67.20;;;;;;4986485;28;1899;-69
2024/02/21 01:30:52;;;;;;;;;;;17.70;67.20;;;;;;5000047;28;1304;-72
2024/02/21 01:33:18;;;;;;;;;;;17.70;67.20;;;;;;5002520;28;1194;-72
2024/02/21 01:35:43;;;;;;;;;;;17.70;67.20;;;;;;5006052;28;1441;-71
2024/02/21 01:38:09;;;;;;;;;;;17.70;67.20;;;;;;4989147;28;1200;-71
2024/02/21 01:40:34;;;;;;;;;;;17.70;67.20;;;;;;5006527;28;1308;-71
2024/02/21 01:43:00;;;;;;;;;;;17.70;67.30;;;;;;5004576;28;1510;-70
2024/02/21 01:45:25;;;;;;;;;;;17.70;67.30;;;;;;5005183;28;1535;-70
2024/02/21 01:47:51;;;;;;;;;;;17.70;67.30;;;;;;5005214;28;1891;-70
2024/02/21 01:50:16;;;;;;;;;;;17.70;67.30;;;;;;5005308;28;1367;-70
2024/02/21 01:52:43;;;;;;;;;;;17.70;67.40;;;;;;5007090;28;1581;-70
2024/02/21 01:55:08;;;;;;;;;;;17.70;67.30;;;;;;5003591;28;1301;-70
2024/02/21 01:57:34;;;;;;;;;;;17.70;67.30;;;;;;4986849;28;1239;-70
2024/02/21 02:00:00;;;;;;;;;;;17.70;67.40;;;;;;5005414;28;1436;-70
2024/02/21 02:02:25;;;;;;;;;;;17.70;67.40;;;;;;5005146;28;1501;-69
2024/02/21 02:04:51;;;;;;;;;;;17.70;67.40;;;;;;4986347;28;2401;-70
2024/02/21 02:07:16;;;;;;;;;;;17.70;67.40;;;;;;4990713;28;1906;-70
2024/02/21 02:09:41;;;;;;;;;;;17.70;67.40;;;;;;5006698;28;1359;-70
2024/02/21 02:12:07;;;;;;;;;;;17.70;67.40;;;;;;5004421;28;1267;-70
2024/02/21 02:14:33;;;;;;;;;;;17.70;67.40;;;;;;5003399;28;1551;-71
2024/02/21 02:16:58;;;;;;;;;;;17.70;67.40;;;;;;5005255;28;886;-70
2024/02/21 02:19:23;;;;;;;;;;;17.70;67.40;;;;;;5001592;28;1533;-71
2024/02/21 02:21:53;;;;;;;;;;;17.70;67.40;;;;;;5005277;28;1453;-71
2024/02/21 02:24:19;;;;;;;;;;;17.70;67.40;;;;;;5004844;28;967;-71
2024/02/21 02:26:44;;;;;;;;;;;17.70;67.40;;;;;;4987709;28;1399;-71
2024/02/21 02:29:10;;;;;;;;;;;17.70;67.40;;;;;;5004783;28;1902;-70
2024/02/21 02:31:35;;;;;;;;;;;17.70;67.50;;;;;;5004650;28;1359;-71
2024/02/21 02:34:00;;;;;;;;;;;17.70;67.40;;;;;;5005310;28;1465;-70
2024/02/21 02:36:26;;;;;;;;;;;17.70;67.50;;;;;;5003882;28;1287;-71
2024/02/21 02:38:52;;;;;;;;;;;17.70;67.50;;;;;;5004608;28;1508;-71
2024/02/21 02:41:17;;;;;;;;;;;17.70;67.50;;;;;;5006424;28;1576;-68
2024/02/21 02:43:42;;;;;;;;;;;17.70;67.50;;;;;;5005639;28;1306;-69
2024/02/21 02:46:08;;;;;;;;;;;17.70;67.50;;;;;;5005582;28;1062;-68
2024/02/21 02:48:33;;;;;;;;;;;17.70;67.50;;;;;;5004951;28;1906;-68
2024/02/21 02:50:59;;;;;;;;;;;17.70;67.50;;;;;;4986808;28;1409;-68
2024/02/21 02:53:24;;;;;;;;;;;17.70;67.50;;;;;;5003514;28;920;-68
2024/02/21 02:55:50;;;;;;;;;;;17.70;67.50;;;;;;5005331;28;1211;-68
2024/02/21 02:58:15;;;;;;;;;;;17.70;67.50;;;;;;5003552;28;1234;-68
2024/02/21 03:00:41;;;;;;;;;;;17.70;67.50;;;;;;5003753;28;1377;-70
2024/02/21 03:03:08;;;;;;;;;;;17.70;67.50;;;;;;5006723;28;1305;-69
2024/02/21 03:05:34;;;;;;;;;;;17.70;67.60;;;;;;5005614;28;1425;-69
2024/02/21 03:07:59;;;;;;;;;;;17.60;67.50;;;;;;5004377;28;1910;-69
2024/02/21 03:10:24;;;;;;;;;;;17.70;67.60;;;;;;5002071;28;1577;-69
2024/02/21 03:12:52;;;;;;;;;;;17.70;67.60;;;;;;5006237;28;1457;-69
2024/02/21 03:15:18;;;;;;;;;;;17.70;67.60;;;;;;5005397;28;1266;-70
2024/02/21 03:17:43;;;;;;;;;;;17.70;67.60;;;;;;5004502;28;1541;-69
2024/02/21 03:20:09;;;;;;;;;;;17.70;67.60;;;;;;5004418;28;1389;-69
2024/02/21 03:22:35;;;;;;;;;;;17.70;67.60;;;;;;5005021;28;1331;-71
2024/02/21 03:25:00;;;;;;;;;;;17.60;67.50;;;;;;4983355;28;1676;-69
2024/02/21 03:27:26;;;;;;;;;;;17.70;67.60;;;;;;5004776;28;2034;-69
2024/02/21 03:29:51;;;;;;;;;;;17.70;67.60;;;;;;5002054;28;1417;-69
2024/02/21 03:32:17;;;;;;;;;;;17.60;67.60;;;;;;5004819;28;1257;-70
2024/02/21 03:34:42;;;;;;;;;;;17.70;67.70;;;;;;5001408;28;1447;-70
2024/02/21 03:37:08;;;;;;;;;;;17.60;67.60;;;;;;5004345;28;1605;-69
2024/02/21 03:39:33;;;;;;;;;;;17.60;67.60;;;;;;5000390;28;1577;-71
2024/02/21 03:42:04;;;;;;;;;;;17.60;67.60;;;;;;4984102;28;1468;-71
2024/02/21 03:44:33;;;;;;;;;;;17.60;67.60;;;;;;5001852;28;1683;-71
2024/02/21 03:46:59;;;;;;;;;;;17.60;67.60;;;;;;5001114;28;1970;-70
2024/02/21 03:49:24;;;;;;;;;;;17.60;67.60;;;;;;5004175;28;1206;-68
2024/02/21 03:51:50;;;;;;;;;;;17.60;67.60;;;;;;5002234;28;1542;-70
2024/02/21 03:54:15;;;;;;;;;;;17.60;67.60;;;;;;5001218;28;1480;-70
2024/02/21 03:56:41;;;;;;;;;;;17.60;67.60;;;;;;5001754;28;1480;-69
2024/02/21 03:59:07;;;;;;;;;;;17.60;67.60;;;;;;5003685;28;1471;-70
2024/02/21 04:01:33;;;;;;;;;;;17.60;67.60;;;;;;5003796;28;1325;-68
2024/02/21 04:03:59;;;;;;;;;;;17.60;67.60;;;;;;5001220;28;1445;-68
2024/02/21 04:06:24;;;;;;;;;;;17.60;67.60;;;;;;5002626;28;1615;-69
2024/02/21 04:08:50;;;;;;;;;;;17.60;67.60;;;;;;4987122;28;1902;-67
2024/02/21 04:11:15;;;;;;;;;;;17.60;67.60;;;;;;5003385;28;1248;-68
2024/02/21 04:13:40;;;;;;;;;;;17.60;67.70;;;;;;5004668;28;1435;-67
2024/02/21 04:16:06;;;;;;;;;;;17.60;67.70;;;;;;5003559;28;1262;-67
2024/02/21 04:18:31;;;;;;;;;;;17.60;68.40;;;;;;5000576;28;1307;-68
2024/02/21 04:20:58;;;;;;;;;;;17.60;67.60;;;;;;5003060;28;1416;-70
2024/02/21 04:23:23;;;;;;;;;;;17.60;67.70;;;;;;5005928;28;1694;-68
2024/02/21 04:25:49;;;;;;;;;;;17.60;67.70;;;;;;5003308;28;1518;-67
2024/02/21 04:28:14;;;;;;;;;;;17.60;67.70;;;;;;5007296;28;1985;-68
2024/02/21 04:30:39;;;;;;;;;;;17.60;67.70;;;;;;5003514;28;1525;-68
2024/02/21 04:33:05;;;;;;;;;;;17.60;67.70;;;;;;4987022;28;1308;-68
2024/02/21 04:35:31;;;;;;;;;;;17.60;67.70;;;;;;5003336;28;1447;-69
2024/02/21 04:37:56;;;;;;;;;;;17.60;67.70;;;;;;5002071;28;1450;-69
2024/02/21 04:40:22;;;;;;;;;;;17.60;67.70;;;;;;4988168;28;1556;-70
2024/02/21 04:42:47;;;;;;;;;;;17.60;67.70;;;;;;5002926;28;1236;-68
2024/02/21 04:45:13;;;;;;;;;;;17.60;67.70;;;;;;4983640;28;1648;-68
2024/02/21 04:47:38;;;;;;;;;;;17.60;67.70;;;;;;5004332;28;1902;-68
2024/02/21 04:50:04;;;;;;;;;;;17.60;67.70;;;;;;5004285;28;1807;-71
2024/02/21 04:52:29;;;;;;;;;;;17.60;67.70;;;;;;5003183;28;1126;-68
2024/02/21 04:54:56;;;;;;;;;;;17.60;67.70;;;;;;5004245;28;881;-69
2024/02/21 04:57:21;;;;;;;;;;;17.60;67.70;;;;;;4989103;28;1355;-69
2024/02/21 04:59:49;;;;;;;;;;;17.60;67.70;;;;;;5004150;28;1493;-68
2024/02/21 05:02:15;;;;;;;;;;;17.60;67.70;;;;;;4986517;28;884;-69
2024/02/21 05:04:41;;;;;;;;;;;17.60;67.70;;;;;;5002334;28;1617;-71
2024/02/21 05:07:07;;;;;;;;;;;17.60;67.80;;;;;;5001717;28;1898;-67
2024/02/21 05:09:32;;;;;;;;;;;17.60;67.70;;;;;;4987395;28;1553;-71
2024/02/21 05:12:01;;;;;;;;;;;17.60;67.70;;;;;;5006174;28;1515;-67
2024/02/21 05:14:29;;;;;;;;;;;17.60;67.60;;;;;;5004822;28;1480;-67
2024/02/21 05:16:55;;;;;;;;;;;17.60;67.60;;;;;;4988378;28;1340;-68
2024/02/21 05:19:20;;;;;;;;;;;17.70;67.60;;;;;;4985954;28;1597;-67
2024/02/21 05:21:46;;;;;;;;;;;17.70;67.40;;;;;;5005647;28;1351;-68
2024/02/21 05:24:11;;;;;;;;;;;17.70;67.30;;;;;;5006156;28;1603;-67
2024/02/21 05:26:37;;;;;;;;;;;17.80;67.20;;;;;;5005346;28;1507;-68
2024/02/21 05:29:02;;;;;;;;;;;17.80;67.20;;;;;;4988693;28;1938;-67
2024/02/21 05:31:42;;;;;;;;;;;17.80;67.10;;;;;;5005517;28;1584;-68
2024/02/21 05:34:08;;;;;;;;;;;17.80;66.90;;;;;;5009340;28;1669;-68
2024/02/21 05:36:34;;;;;;;;;;;17.80;66.80;;;;;;5009292;28;1252;-68
2024/02/21 05:38:59;;;;;;;;;;;17.90;66.80;;;;;;5007428;28;1346;-70
2024/02/21 05:41:25;;;;;;;;;;;17.90;66.70;;;;;;4989439;28;1639;-68
2024/02/21 05:43:50;;;;;;;;;;;17.90;66.60;;;;;;5003143;28;1466;-68
2024/02/21 05:46:18;;;;;;;;;;;17.90;66.50;;;;;;5007918;28;1584;-67
2024/02/21 05:48:44;;;;;;;;;;;17.90;66.40;;;;;;4988659;28;1970;-70
2024/02/21 05:51:09;;;;;;;;;;;18.00;66.40;;;;;;5005392;28;1476;-69
2024/02/21 05:53:36;;;;;;;;;;;18.00;66.30;;;;;;5002649;28;1557;-68
2024/02/21 05:56:01;;;;;;;;;;;18.00;66.20;;;;;;5002738;28;1545;-69
2024/02/21 05:58:27;;;;;;;;;;;18.00;66.20;;;;;;5005374;28;1745;-67
2024/02/21 06:00:53;;;;;;;;;;;18.00;66.10;;;;;;5004626;28;1481;-68
2024/02/21 06:03:18;;;;;;;;;;;18.10;66.10;;;;;;5006080;28;1373;-67
2024/02/21 06:05:44;;;;;;;;;;;18.10;66.10;;;;;;4988130;28;1493;-69
2024/02/21 06:08:09;;;;;;;;;;;18.10;66.00;;;;;;5007939;28;1907;-69
2024/02/21 06:10:35;;;;;;;;;;;18.10;66.00;;;;;;5005653;28;1475;-70
2024/02/21 06:13:00;;;;;;;;;;;18.10;66.00;;;;;;5005529;28;1546;-70
2024/02/21 06:15:26;;;;;;;;;;;18.10;66.00;;;;;;5006838;28;1208;-70
2024/02/21 06:17:51;;;;;;;;;;;18.10;65.90;;;;;;4986539;28;1623;-69
2024/02/21 06:20:16;;;;;;;;;;;18.10;65.90;;;;;;5005274;28;1352;-70
2024/02/21 06:22:42;;;;;;;;;;;18.10;65.90;;;;;;5004475;28;1478;-69
2024/02/21 06:25:08;;;;;;;;;;;18.10;65.80;;;;;;5004212;28;1702;-70
2024/02/21 06:27:33;;;;;;;;;;;18.10;65.80;;;;;;5004110;28;1902;-70
2024/02/21 06:29:58;;;;;;;;;;;18.10;65.80;;;;;;5005329;28;1504;-69
2024/02/21 06:32:24;;;;;;;;;;;18.20;65.80;;;;;;5004943;28;1632;-69
2024/02/21 06:34:49;;;;;;;;;;;18.20;65.80;;;;;;5004363;28;1637;-68
2024/02/21 06:37:15;;;;;;;;;;;18.20;65.70;;;;;;5005403;28;1482;-68
2024/02/21 06:39:40;;;;;;;;;;;18.20;65.70;;;;;;5006146;28;1486;-68
2024/02/21 06:42:06;;;;;;;;;;;18.20;65.70;;;;;;5004689;28;1616;-68
2024/02/21 06:44:35;;;;;;;;;;;18.20;65.60;;;;;;5004437;28;1238;-68
2024/02/21 06:47:00;;;;;;;;;;;18.20;65.60;;;;;;5003448;28;1249;-68
2024/02/21 06:49:26;;;;;;;;;;;18.20;65.60;;;;;;5003385;28;1906;-68
2024/02/21 06:51:51;;;;;;;;;;;18.20;65.60;;;;;;5003249;28;1677;-68
2024/02/21 06:54:16;;;;;;;;;;;18.20;65.60;;;;;;5005831;28;1377;-69
2024/02/21 06:56:42;;;;;;;;;;;18.20;65.60;;;;;;5005082;28;1557;-68
2024/02/21 06:59:07;;;;;;;;;;;18.20;65.60;;;;;;5006775;28;1500;-68
2024/02/21 07:01:33;;;;;;;;;;;18.20;65.60;;;;;;5002816;28;1614;-68
2024/02/21 07:03:58;;;;;;;;;;;18.20;65.60;;;;;;4985136;28;1477;-68
2024/02/21 07:06:24;;;;;;;;;;;18.20;65.60;;;;;;5003834;28;1635;-68
2024/02/21 07:08:49;;;;;;;;;;;18.20;65.60;;;;;;5002890;28;1895;-68
2024/02/21 07:11:15;;;;;;;;;;;18.20;65.60;;;;;;5004587;28;1323;-68
2024/02/21 07:13:40;;;;;;;;;;;18.20;65.60;;;;;;4984981;28;1544;-68
2024/02/21 07:16:06;;;;;;;;;;;18.20;65.60;;;;;;5006261;28;1236;-69
2024/02/21 07:18:31;;;;;;;;;;;18.20;65.70;;;;;;5003458;28;1247;-69
2024/02/21 07:20:58;;;;;;;;;;;18.20;65.70;;;;;;5002918;28;1959;-68
2024/02/21 07:23:23;;;;;;;;;;;18.20;65.70;;;;;;5002560;28;1284;-69
2024/02/21 07:25:49;;;;;;;;;;;18.20;65.70;;;;;;4985137;28;1364;-69
2024/02/21 07:28:16;;;;;;;;;;;18.20;65.70;;;;;;5002370;28;1894;-69
2024/02/21 07:30:41;;;;;;;;;;;18.20;65.80;;;;;;5001915;28;1275;-68
2024/02/21 07:33:07;;;;;;;;;;;18.20;65.80;;;;;;5003981;28;876;-69
2024/02/21 07:35:32;;;;;;;;;;;18.10;65.80;;;;;;4984729;28;1162;-69
2024/02/21 07:37:58;;;;;;;;;;;18.10;65.80;;;;;;5003415;28;1100;-68
2024/02/21 07:40:23;;;;;;;;;;;18.10;65.80;;;;;;5005127;28;1303;-68
2024/02/21 07:42:49;;;;;;;;;;;18.10;65.80;;;;;;5004454;28;1093;-68
2024/02/21 07:45:14;;;;;;;;;;;18.10;65.90;;;;;;5002116;28;1014;-68
2024/02/21 07:47:40;;;;;;;;;;;18.10;65.90;;;;;;5003610;28;1903;-68
2024/02/21 07:50:05;;;;;;;;;;;18.10;65.90;;;;;;5001881;28;1314;-69
2024/02/21 07:52:31;;;;;;;;;;;18.10;65.90;;;;;;5000561;28;1407;-67
2024/02/21 07:54:56;;;;;;;;;;;18.10;66.00;;;;;;5004001;28;1372;-68
2024/02/21 07:57:22;;;;;;;;;;;18.10;66.00;;;;;;4986429;28;1223;-69
2024/02/21 07:59:48;;;;;;;;;;;18.10;66.00;;;;;;5001559;28;1570;-69
2024/02/21 08:02:16;;;;;;;;;;;18.10;66.00;;;;;;5001606;28;1594;-69
2024/02/21 08:04:42;;;;;;;;;;;18.10;66.00;;;;;;5004942;28;1464;-70
2024/02/21 08:07:08;;;;;;;;;;;18.10;66.00;;;;;;5003666;28;1998;-69
2024/02/21 08:09:33;;;;;;;;;;;18.10;66.10;;;;;;5004815;28;1316;-69
2024/02/21 08:11:58;;;;;;;;;;;18.10;66.10;;;;;;4985799;28;1594;-69
2024/02/21 08:14:24;;;;;;;;;;;18.10;66.10;;;;;;5002858;28;1597;-69
2024/02/21 08:16:50;;;;;;;;;;;18.10;66.10;;;;;;5004141;28;1191;-69
2024/02/21 08:19:16;;;;;;;;;;;18.10;66.10;;;;;;4992642;28;1700;-69
2024/02/21 08:21:42;;;;;;;;;;;18.10;66.10;;;;;;5000142;28;1532;-69
2024/02/21 08:24:07;;;;;;;;;;;18.00;66.10;;;;;;5002413;28;1536;-70
2024/02/21 08:26:33;;;;;;;;;;;18.00;66.10;;;;;;5003280;28;1468;-68
2024/02/21 08:28:59;;;;;;;;;;;18.00;66.10;;;;;;5002503;28;1894;-68
2024/02/21 08:31:30;;;;;;;;;;;18.00;66.10;;;;;;5003521;28;1355;-68
2024/02/21 08:34:03;;;;;;;;;;;18.00;66.20;;;;;;5002481;28;1386;-69
2024/02/21 08:36:32;;;;;;;;;;;18.00;66.20;;;;;;5002933;28;1254;-69
2024/02/21 08:38:57;;;;;;;;;;;18.00;66.20;;;;;;5002144;28;1658;-68
2024/02/21 08:41:23;;;;;;;;;;;18.00;66.20;;;;;;4985658;28;1351;-68
2024/02/21 08:43:52;;;;;;;;;;;18.00;66.20;;;;;;5005309;28;1302;-69
2024/02/21 08:46:17;;;;;;;;;;;18.00;66.20;;;;;;4987118;28;1300;-67
2024/02/21 08:48:43;;;;;;;;;;;18.10;66.20;;;;;;4986135;28;1962;-68
2024/02/21 08:51:08;;;;;;;;;;;18.00;66.20;;;;;;4999871;28;1643;-68
2024/02/21 08:53:34;;;;;;;;;;;18.00;66.20;;;;;;5001497;28;1291;-68
2024/02/21 08:55:59;;;;;;;;;;;18.00;66.20;;;;;;5005009;28;1875;-68
2024/02/21 08:58:26;;;;;;;;;;;18.00;66.20;;;;;;5001554;28;1257;-69
2024/02/21 09:00:52;;;;;;;;;;;18.00;66.20;;;;;;4999689;28;1284;-68
2024/02/21 09:03:19;;;;;;;;;;;18.00;66.20;;;;;;5004564;28;1225;-68
2024/02/21 09:05:45;;;;;;;;;;;18.00;66.20;;;;;;4992220;28;1277;-68
2024/02/21 09:08:11;;;;;;;;;;;18.00;66.20;;;;;;5003835;28;1992;-69
2024/02/21 09:10:36;;;;;;;;;;;18.00;66.30;;;;;;5002049;28;1213;-68
2024/02/21 09:13:03;;;;;;;;;;;18.00;66.20;;;;;;5002143;28;1258;-68
2024/02/21 09:15:29;;;;;;;;;;;18.00;66.20;;;;;;5003563;28;1520;-68
2024/02/21 09:17:54;;;;;;;;;;;18.00;66.30;;;;;;5005735;28;1571;-68
2024/02/21 09:20:19;;;;;;;;;;;18.00;66.30;;;;;;5000170;28;1316;-69
2024/02/21 09:22:45;;;;;;;;;;;18.00;66.30;;;;;;5000528;28;1472;-70
2024/02/21 09:25:11;;;;;;;;;;;18.00;66.30;;;;;;5001734;28;1441;-69
2024/02/21 09:27:37;;;;;;;;;;;18.00;66.30;;;;;;5002692;28;1894;-69
2024/02/21 09:30:04;;;;;;;;;;;18.00;66.30;;;;;;5000528;28;1428;-69
2024/02/21 09:32:30;;;;;;;;;;;18.00;66.40;;;;;;5002571;28;1413;-69
2024/02/21 09:34:55;;;;;;;;;;;18.00;66.30;;;;;;5003027;28;1512;-69
2024/02/21 09:37:20;;;;;;;;;;;18.00;66.40;;;;;;5000648;28;1331;-69
2024/02/21 09:39:47;;;;;;;;;;;18.00;66.30;;;;;;5001655;28;1418;-70
2024/02/21 09:42:13;;;;;;;;;;;18.00;66.40;;;;;;5002393;28;1875;-69
2024/02/21 09:44:38;;;;;;;;;;;17.90;66.40;;;;;;4985451;28;1485;-69
2024/02/21 09:47:06;;;;;;;;;;;18.00;66.40;;;;;;5001246;28;1314;-69
2024/02/21 09:49:32;;;;;;;;;;;17.90;66.40;;;;;;5000445;28;1977;-69
2024/02/21 09:51:59;;;;;;;;;;;17.90;66.40;;;;;;4982650;28;995;-69
2024/02/21 09:54:25;;;;;;;;;;;17.90;66.40;;;;;;5003596;28;1578;-69
2024/02/21 09:56:50;;;;;;;;;;;17.90;66.40;;;;;;5003823;28;1372;-69
2024/02/21 09:59:16;;;;;;;;;;;17.90;66.50;;;;;;5004844;28;1195;-69
2024/02/21 10:01:46;;;;;;;;;;;17.90;66.40;;;;;;5003268;28;1443;-70
2024/02/21 10:04:12;;;;;;;;;;;17.90;67.20;;;;;;5005196;28;1617;-70
2024/02/21 10:06:38;;;;;;;;;;;17.90;66.50;;;;;;5002203;28;1549;-70
2024/02/21 10:09:05;;;;;;;;;;;17.90;66.50;;;;;;4987891;28;1996;-70
2024/02/21 10:11:31;;;;;;;;;;;17.90;66.50;;;;;;4992578;28;1583;-70
2024/02/21 10:14:06;;;;;;;;;;;17.90;66.40;;;;;;5004142;28;1518;-70
2024/02/21 10:16:31;;;;;;;;;;;17.90;66.40;;;;;;4989224;28;1297;-69
2024/02/21 10:18:57;;;;;;;;;;;17.90;66.40;;;;;;5005779;28;1579;-70
2024/02/21 10:21:22;;;;;;;;;;;18.00;66.40;;;;;;5007095;28;1540;-69
2024/02/21 10:23:51;;;;;;;;;;;18.00;66.40;;;;;;5001353;28;1308;-70
2024/02/21 10:26:17;;;;;;;;;;;18.00;66.70;;;;;;5001552;28;1460;-70
2024/02/21 10:28:44;;;;;;;;;;;18.00;66.30;;;;;;4989904;28;1902;-70
2024/02/21 10:31:10;;;;;;;;;;;18.00;66.20;;;;;;5006587;28;1384;-70
2024/02/21 10:33:37;;;;;;;;;;;18.10;66.30;;;;;;4987274;28;1333;-70
2024/02/21 10:36:09;;;;;;;;;;;18.00;66.10;;;;;;5007229;28;1113;-70
2024/02/21 10:38:38;;;;;;;;;;;18.00;66.10;;;;;;4988876;28;1122;-69
2024/02/21 10:41:06;;;;;;;;;;;18.10;66.10;;;;;;4989441;28;1563;-69
2024/02/21 10:43:40;;;;;;;;;;;18.10;66.10;;;;;;5003051;28;1109;-70
2024/02/21 10:46:06;;;;;;;;;;;18.10;66.10;;;;;;5005349;28;1419;-69
2024/02/21 10:48:33;;;;;;;;;;;18.10;66.10;;;;;;5006916;28;1910;-69
2024/02/21 10:51:02;;;;;;;;;;;18.10;66.10;;;;;;5005626;28;1281;-69
2024/02/21 10:53:35;;;;;;;;;;;18.10;66.10;;;;;;5005158;28;1338;-69
2024/02/21 10:56:12;;;;;;;;;;;18.10;66.10;;;;;;4987472;28;1281;-70
2024/02/21 10:58:38;;;;;;;;;;;18.10;66.10;;;;;;5005104;28;1577;-68
2024/02/21 11:01:03;;;;;;;;;;;18.10;66.10;;;;;;5002935;28;2008;-70
2024/02/21 11:03:29;;;;;;;;;;;18.10;66.20;;;;;;4993525;28;1330;-71
2024/02/21 11:05:54;;;;;;;;;;;18.10;66.10;;;;;;4989725;28;1474;-70
2024/02/21 11:08:20;;;;;;;;;;;18.10;66.10;;;;;;5001360;28;1910;-70
2024/02/21 11:10:45;;;;;;;;;;;18.10;66.20;;;;;;4980764;28;1300;-71
2024/02/21 11:13:11;;;;;;;;;;;18.10;66.20;;;;;;4986162;28;1680;-71
2024/02/21 11:15:36;;;;;;;;;;;18.10;66.20;;;;;;5005583;28;1569;-70
2024/02/21 11:18:02;;;;;;;;;;;18.00;66.10;;;;;;4990863;28;1707;-70
2024/02/21 11:20:34;;;;;;;;;;;18.00;66.10;;;;;;5003559;28;1533;-71
2024/02/21 11:23:00;;;;;;;;;;;18.10;66.20;;;;;;5001665;28;1159;-71
2024/02/21 11:25:26;;;;;;;;;;;18.10;66.20;;;;;;5001251;28;1591;-71
2024/02/21 11:27:58;;;;;;;;;;;18.10;66.10;;;;;;5005413;28;1898;-71
2024/02/21 11:30:27;;;;;;;;;;;18.10;66.20;;;;;;5004349;28;1578;-71
2024/02/21 11:33:02;;;;;;;;;;;18.10;66.10;;;;;;5003426;28;1459;-68
2024/02/21 11:35:30;;;;;;;;;;;18.10;66.10;;;;;;4987557;28;1474;-70
2024/02/21 11:37:56;;;;;;;;;;;18.10;66.00;;;;;;4990706;28;1469;-70
2024/02/21 11:40:22;;;;;;;;;;;18.10;66.00;;;;;;5003073;28;1383;-70
2024/02/21 11:42:48;;;;;;;;;;;18.10;66.00;;;;;;5006287;28;1594;-70
2024/02/21 11:45:14;;;;;;;;;;;18.10;66.00;;;;;;5005861;28;1404;-69
2024/02/21 11:47:42;;;;;;;;;;;18.10;65.90;;;;;;4984817;28;1907;-70
2024/02/21 11:50:10;;;;;;;;;;;18.10;65.90;;;;;;5005099;28;1465;-70
2024/02/21 11:52:35;;;;;;;;;;;18.10;65.90;;;;;;5002474;28;1528;-70
2024/02/21 11:55:04;;;;;;;;;;;18.10;65.80;;;;;;5001935;28;1447;-69
2024/02/21 11:57:30;;;;;;;;;;;18.10;65.80;;;;;;5002011;28;1444;-69
2024/02/21 11:59:55;;;;;;;;;;;18.10;65.80;;;;;;5002949;28;1500;-69
2024/02/21 12:02:20;;;;;;;;;;;18.10;65.80;;;;;;5004263;28;1343;-70
2024/02/21 12:04:46;;;;;;;;;;;18.10;65.80;;;;;;5005530;28;1150;-70
2024/02/21 12:07:11;;;;;;;;;;;18.20;65.80;;;;;;4988231;28;1687;-68
2024/02/21 12:09:37;;;;;;;;;;;18.10;66.50;;;;;;5001508;28;1911;-69
2024/02/21 12:12:03;;;;;;;;;;;18.20;65.80;;;;;;5000418;28;1325;-68
2024/02/21 12:14:29;;;;;;;;;;;18.10;65.80;;;;;;4984861;28;1452;-68
2024/02/21 12:16:55;;;;;;;;;;;18.10;66.50;;;;;;5001843;28;1453;-68
2024/02/21 12:19:20;;;;;;;;;;;18.10;65.80;;;;;;5000504;28;1007;-68
2024/02/21 12:21:47;;;;;;;;;;;18.10;65.90;;;;;;5000381;28;1388;-68
2024/02/21 12:24:13;;;;;;;;;;;18.10;65.90;;;;;;5001627;28;1366;-68
2024/02/21 12:26:39;;;;;;;;;;;18.10;66.70;;;;;;5003580;28;1472;-69
2024/02/21 12:29:05;;;;;;;;;;;18.10;65.90;;;;;;4986224;28;1891;-69
2024/02/21 12:31:31;;;;;;;;;;;18.10;65.90;;;;;;5000533;28;2021;-69
2024/02/21 12:33:56;;;;;;;;;;;18.10;66.00;;;;;;5001079;28;1330;-69
2024/02/21 12:36:22;;;;;;;;;;;18.10;66.00;;;;;;4999592;28;2139;-69
2024/02/21 12:38:48;;;;;;;;;;;18.10;66.00;;;;;;5000869;28;1985;-69
2024/02/21 12:41:14;;;;;;;;;;;18.10;66.00;;;;;;4999664;28;1838;-69
2024/02/21 12:43:40;;;;;;;;;;;18.10;66.10;;;;;;5000006;28;1452;-69
2024/02/21 12:46:07;;;;;;;;;;;18.10;66.00;;;;;;4999611;28;1445;-69
2024/02/21 12:48:33;;;;;;;;;;;18.10;66.00;;;;;;5004111;28;1975;-69
2024/02/21 12:50:58;;;;;;;;;;;18.10;65.90;;;;;;5001239;28;1268;-69
2024/02/21 12:53:24;;;;;;;;;;;18.10;66.00;;;;;;4985512;28;1647;-68
2024/02/21 12:55:49;;;;;;;;;;;18.10;65.90;;;;;;5002604;28;1307;-67
2024/02/21 12:58:15;;;;;;;;;;;18.10;65.90;;;;;;4987739;28;1705;-69
2024/02/21 13:00:41;;;;;;;;;;;18.10;65.90;;;;;;5002577;28;1506;-68
2024/02/21 13:03:06;;;;;;;;;;;18.10;65.80;;;;;;4988280;28;1473;-68
2024/02/21 13:05:32;;;;;;;;;;;18.20;65.90;;;;;;5000630;28;1250;-69
2024/02/21 13:07:57;;;;;;;;;;;18.20;65.80;;;;;;5003175;28;1902;-69
2024/02/21 13:10:23;;;;;;;;;;;18.20;65.80;;;;;;5002587;28;1822;-70
2024/02/21 13:12:49;;;;;;;;;;;18.20;65.80;;;;;;4984376;28;1368;-69
2024/02/21 13:15:15;;;;;;;;;;;18.20;65.80;;;;;;5003294;28;1689;-70
2024/02/21 13:17:41;;;;;;;;;;;18.20;65.70;;;;;;5004196;28;1378;-70
2024/02/21 13:20:08;;;;;;;;;;;18.20;65.80;;;;;;4989637;28;2508;-70
2024/02/21 13:22:33;;;;;;;;;;;18.20;65.70;;;;;;4998499;28;1649;-70
2024/02/21 13:24:59;;;;;;;;;;;18.20;65.70;;;;;;5003077;28;1984;-70
2024/02/21 13:27:25;;;;;;;;;;;18.20;65.70;;;;;;4984468;28;1899;-71
2024/02/21 13:29:50;;;;;;;;;;;18.20;65.70;;;;;;5002596;28;1394;-69
2024/02/21 13:32:16;;;;;;;;;;;18.20;65.70;;;;;;5008464;28;1645;-69
2024/02/21 13:34:42;;;;;;;;;;;18.20;65.70;;;;;;5002628;28;1642;-69
2024/02/21 13:37:09;;;;;;;;;;;18.20;65.70;;;;;;4989074;28;1119;-69
2024/02/21 13:39:38;;;;;;;;;;;18.20;65.80;;;;;;4986181;28;1261;-69
2024/02/21 13:42:05;;;;;;;;;;;18.20;65.80;;;;;;5003132;28;1334;-69
2024/02/21 13:44:31;;;;;;;;;;;18.20;65.80;;;;;;5000818;28;1320;-69
2024/02/21 13:46:56;;;;;;;;;;;18.20;65.90;;;;;;5003323;28;1480;-69
2024/02/21 13:49:22;;;;;;;;;;;18.10;65.80;;;;;;5005026;28;1922;-68
2024/02/21 13:51:48;;;;;;;;;;;18.10;65.80;;;;;;5002366;28;1292;-69
2024/02/21 13:54:16;;;;;;;;;;;18.10;65.90;;;;;;4987166;28;1451;-69
2024/02/21 13:56:42;;;;;;;;;;;18.10;65.80;;;;;;5004488;28;1269;-69
2024/02/21 13:59:08;;;;;;;;;;;18.10;65.90;;;;;;4985905;28;1485;-68
2024/02/21 14:01:35;;;;;;;;;;;18.10;65.90;;;;;;4989775;28;1304;-69
2024/02/21 14:04:01;;;;;;;;;;;18.10;65.90;;;;;;4985650;28;1672;-69
2024/02/21 14:06:26;;;;;;;;;;;18.10;65.90;;;;;;5005970;28;1588;-69
2024/02/21 14:08:52;;;;;;;;;;;18.10;66.00;;;;;;4987230;28;1963;-69
2024/02/21 14:11:17;;;;;;;;;;;18.10;65.90;;;;;;5003996;28;1584;-69
2024/02/21 14:13:43;;;;;;;;;;;18.10;66.00;;;;;;5005147;28;1066;-69
2024/02/21 14:16:14;;;;;;;;;;;18.10;65.90;;;;;;5004935;28;1241;-69
2024/02/21 14:18:43;;;;;;;;;;;18.10;65.90;;;;;;4989315;28;1272;-69
2024/02/21 14:21:10;;;;;;;;;;;18.10;65.90;;;;;;5003285;28;1479;-69
2024/02/21 14:23:38;;;;;;;;;;;18.10;65.90;;;;;;5006239;28;1628;-69